Time;durP1;ratioP1;P1;durP2;ratioP2;P2;SDS_P1;SDS_P2;PMS_P1;PMS_P2;Temp;Humidity;BMP_temperature;BMP_pressure;BME280_temperature;BME280_humidity;BME280_pressure;Samples;Min_cycle;Max_cycle;Signal;HPM_P1;HPM_P2
2022/10/01 00:00:46;;;;;;;36.00;5.85;;;14.50;99.90;;;;;;5071067;28;20177;-57
2022/10/01 00:03:12;;;;;;;41.13;6.55;;;14.60;99.90;;;;;;5061748;28;20185;-56
2022/10/01 00:05:37;;;;;;;33.83;5.60;;;14.40;99.90;;;;;;5052542;28;20173;-56
2022/10/01 00:08:03;;;;;;;39.67;5.77;;;;;;;;;;5068308;28;20272;-56
2022/10/01 00:10:30;;;;;;;40.63;6.38;;;14.60;99.90;;;;;;5071406;28;20212;-56
2022/10/01 00:12:57;;;;;;;29.50;4.35;;;14.30;99.90;;;;;;5071561;28;20694;-56
2022/10/01 00:15:25;;;;;;;38.30;4.75;;;14.40;99.90;;;;;;5070271;28;20189;-57
2022/10/01 00:17:51;;;;;;;39.67;4.82;;;14.60;99.90;;;;;;5067581;28;20177;-57
2022/10/01 00:20:17;;;;;;;35.47;4.43;;;;;;;;;;5052195;28;20175;-57
2022/10/01 00:22:43;;;;;;;23.00;3.30;;;;;;;;;;5052094;28;20169;-57
2022/10/01 00:25:10;;;;;;;24.83;4.27;;;14.60;99.90;;;;;;5063214;28;20189;-57
2022/10/01 00:27:35;;;;;;;39.45;4.00;;;14.40;99.90;;;;;;5069176;28;20298;-57
2022/10/01 00:30:03;;;;;;;26.88;3.30;;;14.50;99.90;;;;;;5070589;28;20267;-57
2022/10/01 00:32:31;;;;;;;24.77;3.53;;;;;;;;;;5066866;28;20226;-57
2022/10/01 00:35:02;;;;;;;22.40;3.30;;;14.70;99.90;;;;;;5052086;28;20189;-57
2022/10/01 00:37:27;;;;;;;23.52;3.28;;;14.30;99.90;;;;;;5056286;28;20177;-57
2022/10/01 00:39:53;;;;;;;28.30;3.57;;;14.30;99.90;;;;;;5060390;28;20169;-57
2022/10/01 00:42:25;;;;;;;34.10;4.85;;;14.60;99.90;;;;;;5071260;28;20657;-57
2022/10/01 00:44:52;;;;;;;28.90;3.38;;;14.50;99.90;;;;;;5069479;28;20226;-57
2022/10/01 00:47:27;;;;;;;28.05;3.72;;;14.40;99.90;;;;;;5071186;28;20181;-56
2022/10/01 00:49:59;;;;;;;23.33;3.08;;;14.50;99.90;;;;;;5071359;28;20263;-56
2022/10/01 00:52:29;;;;;;;25.80;3.17;;;14.60;99.90;;;;;;5071001;28;20180;-58
2022/10/01 00:55:05;;;;;;;37.13;4.38;;;14.50;99.90;;;;;;5051567;28;20696;-58
2022/10/01 00:57:32;;;;;;;21.10;3.53;;;14.40;99.90;;;;;;5061583;28;20206;-58
2022/10/01 01:00:01;;;;;;;32.07;3.60;;;14.60;99.90;;;;;;5070610;28;20324;-58
2022/10/01 01:02:26;;;;;;;22.00;3.20;;;14.20;99.90;;;;;;5070956;28;20179;-58
2022/10/01 01:04:52;;;;;;;26.10;3.50;;;14.50;99.90;;;;;;5071277;28;20537;-57
2022/10/01 01:07:18;;;;;;;31.45;3.53;;;14.40;99.90;;;;;;5067736;28;20252;-58
2022/10/01 01:09:47;;;;;;;28.37;3.73;;;14.40;99.90;;;;;;5051074;28;20224;-58
2022/10/01 01:12:31;;;;;;;24.10;3.63;;;14.30;99.90;;;;;;5055815;28;20177;-58
2022/10/01 01:15:06;;;;;;;23.88;3.13;;;13.90;99.90;;;;;;5054283;28;20184;-58
2022/10/01 01:17:43;;;;;;;33.33;4.97;;;14.20;99.90;;;;;;5065482;28;20180;-58
2022/10/01 01:20:43;;;;;;;17.38;3.10;;;14.20;99.90;;;;;;5050746;28;20184;-58
2022/10/01 01:23:14;;;;;;;32.83;4.73;;;14.10;99.90;;;;;;5057370;28;20252;-57
2022/10/01 01:26:04;;;;;;;24.53;3.73;;;14.30;99.90;;;;;;5071223;28;20185;-57
2022/10/01 01:28:35;;;;;;;37.37;4.10;;;14.30;99.90;;;;;;5056675;28;20181;-58
2022/10/01 01:31:07;;;;;;;34.00;4.23;;;14.30;99.90;;;;;;5051007;28;20648;-57
2022/10/01 01:33:36;;;;;;;37.57;4.30;;;14.30;99.90;;;;;;5063810;28;20756;-58
2022/10/01 01:36:08;;;;;;;30.88;3.45;;;14.10;99.90;;;;;;5054080;28;20657;-58
2022/10/01 01:38:53;;;;;;;34.57;3.83;;;13.50;99.90;;;;;;5055566;28;20176;-58
2022/10/01 01:41:23;;;;;;;30.93;3.63;;;14.20;99.90;;;;;;5067239;28;20179;-58
2022/10/01 01:43:52;;;;;;;22.20;3.40;;;14.10;99.90;;;;;;5059224;28;20180;-58
2022/10/01 01:46:19;;;;;;;34.78;4.72;;;14.10;99.90;;;;;;5070963;28;20558;-58
2022/10/01 01:48:48;;;;;;;41.77;3.80;;;13.90;99.90;;;;;;5070429;28;20191;-58
2022/10/01 01:51:22;;;;;;;37.37;3.97;;;14.30;99.90;;;;;;5070812;28;20639;-58
2022/10/01 01:53:48;;;;;;;27.50;3.47;;;13.90;99.90;;;;;;5070178;28;20287;-57
2022/10/01 01:56:16;;;;;;;29.60;3.75;;;;;;;;;;5055913;28;20207;-58
2022/10/01 01:58:43;;;;;;;24.55;3.83;;;14.10;99.90;;;;;;5065928;28;20180;-57
2022/10/01 02:01:39;;;;;;;29.53;4.07;;;13.90;99.90;;;;;;5070376;28;20643;-57
2022/10/01 02:04:31;;;;;;;30.67;3.90;;;13.90;99.90;;;;;;5065840;28;20197;-57
2022/10/01 02:07:33;;;;;;;33.77;4.47;;;14.20;99.90;;;;;;5070477;28;20187;-57
2022/10/01 02:10:09;;;;;;;24.47;3.87;;;14.10;99.90;;;;;;5055698;28;20240;-57
2022/10/01 02:13:12;;;;;;;33.50;3.57;;;14.20;99.90;;;;;;5061526;28;20836;-57
2022/10/01 02:15:40;;;;;;;31.47;4.00;;;14.20;99.90;;;;;;5069804;28;20180;-57
2022/10/01 02:18:35;;;;;;;31.27;3.40;;;14.20;99.90;;;;;;5061954;28;20307;-57
2022/10/01 02:21:11;;;;;;;21.90;2.90;;;13.80;99.90;;;;;;5070683;28;20168;-57
2022/10/01 02:23:46;;;;;;;32.83;3.83;;;14.10;99.90;;;;;;5070156;28;20643;-57
2022/10/01 02:26:17;;;;;;;32.60;3.67;;;14.10;99.90;;;;;;5070198;28;20187;-58
2022/10/01 02:28:45;;;;;;;27.47;3.90;;;14.00;99.90;;;;;;5070090;28;20188;-57
2022/10/01 02:31:12;;;;;;;21.70;3.28;;;14.20;99.90;;;;;;5062889;28;20181;-57
2022/10/01 02:33:40;;;;;;;31.30;4.70;;;14.20;99.90;;;;;;5067914;28;20243;-58
2022/10/01 02:36:09;;;;;;;28.05;3.55;;;14.10;99.90;;;;;;5070649;28;20177;-58
2022/10/01 02:38:40;;;;;;;32.38;3.92;;;14.40;99.90;;;;;;5068563;28;20204;-58
2022/10/01 02:41:08;;;;;;;34.40;3.50;;;13.90;99.90;;;;;;5070362;28;20326;-58
2022/10/01 02:43:39;;;;;;;32.63;3.30;;;14.20;99.90;;;;;;5069678;28;20647;-58
2022/10/01 02:46:27;;;;;;;27.57;4.13;;;14.20;99.90;;;;;;5069133;28;20184;-58
2022/10/01 02:48:53;;;;;;;29.73;3.50;;;14.40;99.90;;;;;;5068295;28;20647;-58
2022/10/01 02:51:42;;;;;;;27.40;3.58;;;14.20;99.90;;;;;;5056056;28;20170;-59
2022/10/01 02:54:53;;;;;;;24.57;3.87;;;14.10;99.90;;;;;;5053268;28;20216;-58
2022/10/01 02:57:21;;;;;;;31.67;3.43;;;14.00;99.90;;;;;;5033281;28;20178;-58
2022/10/01 02:59:48;;;;;;;32.47;4.00;;;14.20;99.90;;;;;;5058987;28;20196;-58
2022/10/01 03:02:14;;;;;;;31.98;4.07;;;13.90;99.90;;;;;;5071488;28;20169;-58
2022/10/01 03:04:39;;;;;;;26.33;3.50;;;;;;;;;;5073582;28;20192;-58
2022/10/01 03:07:05;;;;;;;32.45;4.82;;;13.90;99.90;;;;;;5073470;28;20251;-58
2022/10/01 03:09:33;;;;;;;29.38;3.78;;;14.00;99.90;;;;;;5053923;28;20725;-59
2022/10/01 03:11:59;;;;;;;28.33;3.37;;;13.80;99.90;;;;;;5073287;28;20176;-58
2022/10/01 03:14:25;;;;;;;26.67;3.40;;;14.10;99.90;;;;;;5063723;28;20217;-58
2022/10/01 03:16:52;;;;;;;36.67;4.27;;;13.90;99.90;;;;;;5070592;28;20184;-58
2022/10/01 03:19:18;;;;;;;25.17;3.87;;;14.10;99.90;;;;;;5072683;28;20259;-58
2022/10/01 03:21:44;;;;;;;28.10;3.73;;;;;;;;;;5066926;28;20235;-58
2022/10/01 03:24:10;;;;;;;29.57;4.47;;;;;;;;;;5068300;28;20213;-57
2022/10/01 03:26:36;;;;;;;27.80;4.07;;;13.90;99.90;;;;;;5060064;28;20197;-57
2022/10/01 03:29:02;;;;;;;24.17;3.63;;;13.80;99.90;;;;;;5070199;28;20173;-57
2022/10/01 03:31:28;;;;;;;28.80;4.40;;;14.00;99.90;;;;;;5073197;28;20200;-57
2022/10/01 03:33:59;;;;;;;35.53;4.63;;;13.80;99.90;;;;;;5072872;28;20260;-57
2022/10/01 03:36:25;;;;;;;30.08;4.15;;;;;;;;;;5071133;28;20662;-57
2022/10/01 03:38:51;;;;;;;24.15;3.15;;;14.10;99.90;;;;;;5055829;28;20177;-56
2022/10/01 03:41:17;;;;;;;25.90;4.17;;;;;;;;;;5071708;28;20297;-57
2022/10/01 03:43:42;;;;;;;28.07;3.77;;;14.30;99.90;;;;;;5071819;28;20199;-57
2022/10/01 03:46:08;;;;;;;31.67;3.87;;;14.50;99.90;;;;;;5072954;28;20177;-57
2022/10/01 03:48:34;;;;;;;35.42;3.95;;;;;;;;;;5060321;28;20261;-58
2022/10/01 03:50:59;;;;;;;22.60;3.50;;;14.30;99.90;;;;;;5052504;28;20179;-58
2022/10/01 03:53:26;;;;;;;28.03;3.70;;;14.30;99.90;;;;;;5059709;28;20235;-58
2022/10/01 03:55:52;;;;;;;28.23;3.40;;;;;;;;;;5072656;28;20672;-58
2022/10/01 03:58:19;;;;;;;37.75;4.13;;;14.30;99.90;;;;;;5072473;28;20208;-57
2022/10/01 04:00:46;;;;;;;31.57;4.27;;;14.40;99.90;;;;;;5057894;28;20200;-57
2022/10/01 04:03:12;;;;;;;24.13;4.03;;;14.30;99.90;;;;;;5069859;28;20199;-58
2022/10/01 04:05:38;;;;;;;30.30;3.67;;;14.40;99.90;;;;;;5072451;28;20260;-58
2022/10/01 04:08:04;;;;;;;37.57;4.10;;;14.40;99.90;;;;;;5064988;28;20204;-57
2022/10/01 04:10:29;;;;;;;18.10;3.13;;;14.40;99.90;;;;;;5064910;28;20224;-57
2022/10/01 04:12:55;;;;;;;23.03;3.87;;;;;;;;;;5060154;28;20227;-58
2022/10/01 04:15:21;;;;;;;26.20;3.42;;;14.30;99.90;;;;;;5071453;28;20188;-58
2022/10/01 04:17:48;;;;;;;30.10;4.57;;;14.50;99.90;;;;;;5064459;28;20256;-57
2022/10/01 04:20:14;;;;;;;27.15;3.75;;;14.20;99.90;;;;;;5052317;28;20177;-57
2022/10/01 04:22:40;;;;;;;28.80;3.80;;;14.40;99.90;;;;;;5056169;28;20314;-57
2022/10/01 04:25:10;;;;;;;19.47;3.57;;;14.50;99.90;;;;;;5072028;28;20200;-58
2022/10/01 04:27:36;;;;;;;24.13;3.03;;;14.40;99.90;;;;;;5068837;28;20259;-58
2022/10/01 04:30:04;;;;;;;26.77;3.47;;;14.40;99.90;;;;;;5070228;28;20892;-58
2022/10/01 04:32:30;;;;;;;27.70;4.22;;;14.40;99.90;;;;;;5071756;28;20176;-58
2022/10/01 04:34:56;;;;;;;20.25;3.28;;;14.30;99.90;;;;;;5071645;28;20180;-58
2022/10/01 04:37:22;;;;;;;23.55;3.40;;;14.40;99.90;;;;;;5070840;28;20176;-57
2022/10/01 04:39:48;;;;;;;26.63;3.35;;;14.30;99.90;;;;;;5067097;28;20255;-58
2022/10/01 04:42:14;;;;;;;28.52;3.58;;;14.50;99.90;;;;;;5071479;28;20234;-58
2022/10/01 04:44:40;;;;;;;22.77;3.90;;;14.30;99.90;;;;;;5071051;28;20176;-56
2022/10/01 04:47:06;;;;;;;24.98;3.42;;;;;;;;;;5071153;28;20279;-56
2022/10/01 04:49:32;;;;;;;23.77;2.90;;;;;;;;;;5071450;28;20259;-55
2022/10/01 04:51:59;;;;;;;23.65;3.08;;;14.30;99.90;;;;;;5071481;28;20173;-57
2022/10/01 04:54:25;;;;;;;27.73;3.95;;;14.30;99.90;;;;;;5069840;28;20208;-56
2022/10/01 04:56:51;;;;;;;22.52;3.45;;;14.40;99.90;;;;;;5067475;28;20643;-56
2022/10/01 04:59:17;;;;;;;19.85;2.80;;;14.40;99.90;;;;;;5071667;28;20177;-57
2022/10/01 05:01:43;;;;;;;21.10;3.53;;;14.50;99.90;;;;;;5070941;28;20639;-56
2022/10/01 05:04:09;;;;;;;23.63;3.10;;;;;;;;;;5053833;28;20264;-58
2022/10/01 05:06:35;;;;;;;28.60;3.08;;;13.90;99.90;;;;;;5051485;28;20823;-57
2022/10/01 05:09:01;;;;;;;34.40;4.15;;;;;;;;;;5065141;28;20182;-57
2022/10/01 05:11:27;;;;;;;22.33;3.10;;;;;;;;;;5055135;28;20168;-57
2022/10/01 05:13:53;;;;;;;28.60;3.70;;;;;;;;;;5070731;28;20230;-56
2022/10/01 05:16:19;;;;;;;24.03;3.67;;;;;;;;;;5068730;28;20654;-57
2022/10/01 05:18:45;;;;;;;23.98;3.45;;;;;;;;;;5070426;28;20267;-59
2022/10/01 05:21:14;;;;;;;16.65;2.65;;;;;;;;;;5071012;28;20187;-57
2022/10/01 05:23:40;;;;;;;24.23;3.77;;;;;;;;;;5070970;28;20181;-57
2022/10/01 05:26:06;;;;;;;19.05;2.67;;;;;;;;;;5070285;28;20247;-57
2022/10/01 05:28:32;;;;;;;27.20;3.63;;;14.20;99.90;;;;;;5065921;28;20172;-57
2022/10/01 05:31:02;;;;;;;20.27;3.15;;;14.30;99.90;;;;;;5051103;28;20169;-57
2022/10/01 05:33:29;;;;;;;23.70;3.77;;;14.60;99.90;;;;;;5060592;28;20247;-56
2022/10/01 05:35:56;;;;;;;19.77;3.80;;;14.20;99.90;;;;;;5069155;28;20291;-56
2022/10/01 05:38:22;;;;;;;23.03;3.60;;;14.00;99.90;;;;;;5054185;28;20220;-57
2022/10/01 05:40:48;;;;;;;31.98;3.97;;;13.90;99.90;;;;;;5067563;28;20204;-57
2022/10/01 05:43:14;;;;;;;18.37;3.53;;;14.10;99.90;;;;;;5069701;28;20234;-57
2022/10/01 05:45:40;;;;;;;22.87;3.63;;;14.30;99.90;;;;;;5065402;28;20673;-56
2022/10/01 05:48:07;;;;;;;35.90;3.83;;;14.20;99.90;;;;;;5050869;28;20199;-56
2022/10/01 05:50:38;;;;;;;22.00;3.50;;;14.10;99.90;;;;;;5050873;28;20208;-56
2022/10/01 05:53:05;;;;;;;21.90;3.25;;;13.80;99.90;;;;;;5056093;28;20758;-56
2022/10/01 05:55:33;;;;;;;26.43;3.57;;;13.90;99.90;;;;;;5068632;28;20181;-57
2022/10/01 05:58:05;;;;;;;28.07;4.13;;;13.70;99.90;;;;;;5054552;28;20177;-57
2022/10/01 06:00:32;;;;;;;27.20;3.40;;;14.00;99.90;;;;;;5069189;28;20597;-57
2022/10/01 06:03:00;;;;;;;25.47;3.13;;;14.00;99.90;;;;;;5070336;28;20184;-57
2022/10/01 06:05:27;;;;;;;25.20;3.53;;;14.10;99.90;;;;;;5069696;28;20701;-57
2022/10/01 06:07:53;;;;;;;27.30;3.33;;;;;;;;;;5050700;28;20169;-57
2022/10/01 06:10:20;;;;;;;18.13;3.27;;;14.00;99.90;;;;;;5056517;28;20267;-56
2022/10/01 06:12:47;;;;;;;32.73;4.17;;;;;;;;;;5070544;28;20204;-56
2022/10/01 06:15:14;;;;;;;34.70;4.10;;;14.00;99.90;;;;;;5069832;28;20192;-56
2022/10/01 06:17:43;;;;;;;24.45;3.38;;;14.00;99.90;;;;;;5070093;28;20267;-56
2022/10/01 06:20:14;;;;;;;23.40;3.70;;;13.90;99.90;;;;;;5070041;28;20651;-56
2022/10/01 06:22:41;;;;;;;34.60;3.93;;;13.90;99.90;;;;;;5050968;28;20181;-55
2022/10/01 06:25:08;;;;;;;32.50;3.63;;;;;;;;;;5050467;28;20672;-55
2022/10/01 06:27:34;;;;;;;24.95;3.40;;;;;;;;;;5052609;28;20542;-56
2022/10/01 06:29:59;;;;;;;25.27;3.07;;;13.70;99.90;;;;;;5071936;28;20279;-56
2022/10/01 06:32:25;;;;;;;22.43;3.47;;;14.30;99.90;;;;;;5072856;28;20184;-56
2022/10/01 06:34:51;;;;;;;23.00;3.03;;;14.00;99.90;;;;;;5071406;28;20188;-56
2022/10/01 06:37:16;;;;;;;27.20;3.90;;;14.00;99.90;;;;;;5054042;28;20636;-57
2022/10/01 06:39:43;;;;;;;26.63;3.27;;;14.00;99.90;;;;;;5062312;28;20173;-57
2022/10/01 06:42:09;;;;;;;26.80;3.10;;;13.70;99.90;;;;;;5072461;28;20538;-56
2022/10/01 06:44:35;;;;;;;27.00;3.85;;;14.00;99.90;;;;;;5057202;28;20177;-56
2022/10/01 06:47:01;;;;;;;26.13;3.73;;;;;;;;;;5056628;28;20188;-56
2022/10/01 06:49:26;;;;;;;27.02;4.15;;;13.90;99.90;;;;;;5073516;28;20172;-56
2022/10/01 06:54:37;;;;;;;22.63;3.10;;;14.70;99.90;;;;;;5073718;28;20238;-56
2022/10/01 06:57:03;;;;;;;24.33;2.90;;;;;;;;;;5063961;28;20631;-57
2022/10/01 06:59:28;;;;;;;21.17;3.43;;;14.20;99.90;;;;;;5062887;28;20655;-57
2022/10/01 07:01:54;;;;;;;21.50;3.77;;;;;;;;;;5057771;28;20197;-57
2022/10/01 07:04:20;;;;;;;27.55;3.88;;;14.50;99.90;;;;;;5059999;28;20173;-57
2022/10/01 07:06:46;;;;;;;28.48;3.83;;;14.70;99.90;;;;;;5068908;28;20195;-57
2022/10/01 07:09:12;;;;;;;25.35;3.60;;;;;;;;;;5073696;28;20213;-57
2022/10/01 07:11:41;;;;;;;32.15;3.70;;;14.50;99.90;;;;;;5073717;28;20269;-56
2022/10/01 07:14:07;;;;;;;24.30;3.90;;;14.60;99.90;;;;;;5073749;28;20216;-58
2022/10/01 07:16:33;;;;;;;20.77;3.45;;;14.30;99.90;;;;;;5070992;28;20626;-57
2022/10/01 07:18:59;;;;;;;26.23;3.78;;;14.50;99.90;;;;;;5053556;28;20188;-57
2022/10/01 07:21:25;;;;;;;24.70;3.55;;;14.60;99.90;;;;;;5053730;28;20252;-57
2022/10/01 07:23:51;;;;;;;27.88;4.28;;;;;;;;;;5053649;28;20181;-55
2022/10/01 07:26:17;;;;;;;20.05;3.13;;;;;;;;;;5053229;28;20173;-58
2022/10/01 07:28:43;;;;;;;22.83;3.20;;;14.60;99.90;;;;;;5056803;28;20191;-57
2022/10/01 07:31:10;;;;;;;22.25;3.10;;;14.70;99.90;;;;;;5053224;28;20213;-58
2022/10/01 07:33:40;;;;;;;18.33;2.78;;;14.80;99.90;;;;;;5053013;28;20220;-58
2022/10/01 07:36:07;;;;;;;31.35;3.28;;;14.80;99.90;;;;;;5052231;28;20238;-58
2022/10/01 07:38:34;;;;;;;13.00;2.70;;;15.00;99.90;;;;;;5052689;28;20166;-58
2022/10/01 07:41:03;;;;;;;26.85;3.00;;;14.70;99.90;;;;;;5051955;28;20279;-58
2022/10/01 07:43:31;;;;;;;22.10;3.38;;;15.10;99.90;;;;;;5052762;28;20165;-57
2022/10/01 07:45:58;;;;;;;25.15;3.67;;;;;;;;;;5052685;28;20265;-58
2022/10/01 07:48:25;;;;;;;27.02;3.75;;;15.00;99.90;;;;;;5052840;28;20256;-58
2022/10/01 07:50:51;;;;;;;17.35;3.45;;;;;;;;;;5060659;28;20185;-57
2022/10/01 07:53:18;;;;;;;23.00;3.20;;;15.30;99.90;;;;;;5052634;28;20216;-56
2022/10/01 07:55:44;;;;;;;30.98;3.88;;;;;;;;;;5051422;28;20173;-57
2022/10/01 07:58:13;;;;;;;22.17;3.53;;;;;;;;;;5055295;28;20194;-57
2022/10/01 08:00:39;;;;;;;23.27;3.40;;;15.10;99.90;;;;;;5072414;28;20172;-57
2022/10/01 08:03:04;;;;;;;19.20;3.42;;;15.30;99.90;;;;;;5071935;28;20180;-60
2022/10/01 08:05:32;;;;;;;22.17;3.47;;;15.00;99.90;;;;;;5071139;28;20171;-57
2022/10/01 08:08:01;;;;;;;23.83;3.35;;;15.10;99.90;;;;;;5072434;28;20662;-56
2022/10/01 08:10:27;;;;;;;19.80;3.83;;;15.50;99.90;;;;;;5071359;28;20224;-57
2022/10/01 08:13:00;;;;;;;20.88;3.70;;;15.40;99.90;;;;;;5070064;28;20677;-57
2022/10/01 08:15:27;;;;;;;23.08;3.60;;;;;;;;;;5060946;28;20183;-58
2022/10/01 08:17:53;;;;;;;17.92;3.45;;;;;;;;;;5071769;28;20181;-57
2022/10/01 08:20:20;;;;;;;26.88;3.40;;;15.70;99.90;;;;;;5059627;28;20751;-57
2022/10/01 08:22:46;;;;;;;19.40;3.03;;;15.70;99.90;;;;;;5071998;28;20183;-56
2022/10/01 08:25:11;;;;;;;29.15;3.72;;;16.90;99.90;;;;;;5071634;28;20177;-56
2022/10/01 08:27:37;;;;;;;29.95;3.85;;;16.00;99.90;;;;;;5067622;28;20187;-55
2022/10/01 08:30:03;;;;;;;26.40;3.80;;;15.80;99.90;;;;;;5052532;28;20177;-55
2022/10/01 08:32:30;;;;;;;14.98;3.45;;;15.60;99.90;;;;;;5051762;28;20196;-56
2022/10/01 08:34:56;;;;;;;19.00;3.25;;;;;;;;;;5055963;28;20193;-56
2022/10/01 08:37:26;;;;;;;26.05;3.75;;;15.70;99.90;;;;;;5052016;28;20176;-55
2022/10/01 08:39:52;;;;;;;22.20;3.83;;;15.80;99.90;;;;;;5070144;28;20177;-56
2022/10/01 08:42:24;;;;;;;24.88;4.35;;;16.00;99.90;;;;;;5071958;28;20207;-56
2022/10/01 08:44:51;;;;;;;21.38;3.45;;;16.10;99.90;;;;;;5072079;28;20197;-55
2022/10/01 08:47:17;;;;;;;19.25;3.30;;;;;;;;;;5070472;28;20183;-56
2022/10/01 08:49:53;;;;;;;26.60;3.75;;;16.20;99.90;;;;;;5070482;28;20169;-55
2022/10/01 08:52:27;;;;;;;20.95;3.22;;;16.20;99.90;;;;;;5071261;28;20183;-56
2022/10/01 08:55:22;;;;;;;18.65;3.38;;;16.40;99.90;;;;;;5055371;28;20254;-55
2022/10/01 08:57:57;;;;;;;24.85;4.25;;;16.40;99.90;;;;;;5051761;28;20242;-55
2022/10/01 09:00:23;;;;;;;25.52;3.30;;;;;;;;;;5066610;28;20597;-56
2022/10/01 09:02:50;;;;;;;22.15;2.97;;;16.60;99.90;;;;;;5065859;28;20582;-56
2022/10/01 09:05:27;;;;;;;21.88;3.35;;;17.30;99.90;;;;;;5065559;28;20184;-56
2022/10/01 09:07:53;;;;;;;15.90;2.78;;;16.70;99.90;;;;;;5064004;28;20226;-58
2022/10/01 09:10:39;;;;;;;18.80;3.15;;;16.80;99.90;;;;;;5071375;28;20228;-58
2022/10/01 09:13:05;;;;;;;21.40;3.70;;;;;;;;;;5069433;28;20307;-58
2022/10/01 09:16:12;;;;;;;19.42;3.25;;;16.70;99.90;;;;;;5070734;28;20176;-59
2022/10/01 09:18:59;;;;;;;24.13;4.13;;;16.60;99.90;;;;;;5036635;28;20203;-57
2022/10/01 09:21:46;;;;;;;24.55;3.47;;;16.70;99.90;;;;;;5063429;28;20185;-57
2022/10/01 09:24:30;;;;;;;29.30;3.97;;;16.60;99.90;;;;;;5070732;28;20187;-57
2022/10/01 09:26:56;;;;;;;16.67;2.75;;;;;;;;;;5071183;28;20192;-57
2022/10/01 09:29:34;;;;;;;20.83;4.03;;;16.80;99.90;;;;;;5067706;28;20546;-57
2022/10/01 09:32:02;;;;;;;23.35;3.20;;;16.90;99.90;;;;;;5070292;28;20189;-58
2022/10/01 09:34:34;;;;;;;23.27;4.13;;;16.60;99.90;;;;;;5070775;28;20209;-57
2022/10/01 09:37:04;;;;;;;28.13;3.95;;;16.70;99.90;;;;;;5071075;28;20172;-57
2022/10/01 09:40:11;;;;;;;26.55;3.92;;;16.80;99.90;;;;;;5070951;28;20203;-58
2022/10/01 09:42:37;;;;;;;20.73;3.03;;;;;;;;;;5070856;28;20630;-58
2022/10/01 09:45:04;;;;;;;26.27;4.32;;;17.20;99.90;;;;;;5071100;28;20180;-57
2022/10/01 09:47:32;;;;;;;25.48;3.42;;;17.40;99.90;;;;;;5069404;28;20531;-55
2022/10/01 09:50:03;;;;;;;23.17;4.15;;;17.50;99.90;;;;;;5070687;28;20179;-56
2022/10/01 09:52:38;;;;;;;28.45;4.72;;;18.10;99.90;;;;;;5070674;28;20261;-57
2022/10/01 09:55:18;;;;;;;22.50;3.50;;;18.00;99.90;;;;;;5070403;28;20199;-56
2022/10/01 09:57:56;;;;;;;18.65;3.33;;;18.00;99.90;;;;;;5070570;28;20261;-57
2022/10/01 10:00:25;;;;;;;16.60;2.97;;;18.00;99.90;;;;;;5070792;28;20194;-56
2022/10/01 10:02:55;;;;;;;26.80;4.28;;;18.10;99.90;;;;;;5074020;28;20267;-56
2022/10/01 10:05:26;;;;;;;22.75;3.58;;;18.10;99.90;;;;;;5074903;28;20220;-56
2022/10/01 10:07:57;;;;;;;19.40;3.15;;;18.50;99.90;;;;;;5074640;28;20706;-56
2022/10/01 10:10:34;;;;;;;23.15;4.10;;;18.20;99.90;;;;;;5074511;28;20224;-56
2022/10/01 10:13:12;;;;;;;16.05;2.92;;;18.70;99.90;;;;;;5072080;28;20199;-56
2022/10/01 10:15:58;;;;;;;25.55;3.55;;;18.60;99.90;;;;;;5074363;28;20172;-57
2022/10/01 10:18:28;;;;;;;21.35;3.17;;;18.60;99.90;;;;;;5073607;28;20172;-58
2022/10/01 10:20:55;;;;;;;23.65;3.28;;;;;;;;;;5072645;28;20339;-57
2022/10/01 10:23:28;;;;;;;20.58;3.50;;;18.40;99.90;;;;;;5073807;28;20176;-55
2022/10/01 10:26:01;;;;;;;20.48;3.03;;;18.70;99.90;;;;;;5073490;28;20271;-55
2022/10/01 10:28:38;;;;;;;19.33;3.25;;;19.80;99.90;;;;;;5074184;28;20212;-56
2022/10/01 10:31:13;;;;;;;17.40;3.20;;;19.30;99.90;;;;;;5072778;28;20180;-56
2022/10/01 10:34:03;;;;;;;24.00;2.85;;;19.30;99.90;;;;;;5073699;28;20219;-56
2022/10/01 10:36:32;;;;;;;19.23;2.60;;;19.40;99.90;;;;;;5073560;28;20172;-56
2022/10/01 10:38:59;;;;;;;18.42;2.72;;;19.50;99.90;;;;;;5073363;28;20259;-56
2022/10/01 10:41:26;;;;;;;19.25;3.33;;;19.00;99.90;;;;;;5073814;28;20212;-56
2022/10/01 10:44:05;;;;;;;19.27;3.20;;;18.80;99.90;;;;;;5073555;28;20187;-56
2022/10/01 10:46:36;;;;;;;18.77;3.15;;;19.80;99.90;;;;;;5073413;28;20175;-56
2022/10/01 10:49:03;;;;;;;18.38;3.58;;;;;;;;;;5073032;28;20187;-56
2022/10/01 10:51:41;;;;;;;19.42;3.25;;;20.50;99.90;;;;;;5073100;28;20650;-55
2022/10/01 10:54:28;;;;;;;23.95;3.92;;;20.20;99.90;;;;;;5073548;28;20216;-56
2022/10/01 10:57:21;;;;;;;22.08;3.20;;;19.00;99.90;;;;;;5073736;28;20188;-56
2022/10/01 10:59:59;;;;;;;23.63;3.28;;;19.10;99.90;;;;;;5042359;28;20333;-56
2022/10/01 11:02:31;;;;;;;19.38;3.20;;;19.40;99.90;;;;;;5073717;28;20229;-57
2022/10/01 11:05:02;;;;;;;21.40;3.35;;;20.10;99.90;;;;;;5073643;28;20331;-56
2022/10/01 11:07:29;;;;;;;24.20;3.55;;;20.40;99.90;;;;;;5073536;28;20266;-56
2022/10/01 11:10:27;;;;;;;20.95;3.92;;;19.70;99.90;;;;;;5072764;28;20215;-57
2022/10/01 11:12:56;;;;;;;21.55;3.05;;;22.00;99.90;;;;;;5072116;28;20169;-57
2022/10/01 11:15:49;;;;;;;19.15;4.03;;;23.10;99.90;;;;;;5073302;28;20196;-57
2022/10/01 11:19:00;;;;;;;16.17;2.97;;;24.80;99.90;;;;;;5072718;28;20175;-57
2022/10/01 11:21:37;;;;;;;18.75;3.83;;;25.60;99.90;;;;;;5073053;28;20204;-57
2022/10/01 11:24:31;;;;;;;13.20;3.25;;;26.00;99.90;;;;;;5073360;28;20178;-57
2022/10/01 11:27:28;;;;;;;14.13;2.80;;;26.40;99.90;;;;;;5072503;28;20259;-56
2022/10/01 11:30:03;;;;;;;16.38;3.50;;;25.80;99.90;;;;;;5071105;28;20639;-57
2022/10/01 11:32:49;;;;;;;14.82;2.72;;;26.30;99.90;;;;;;5071257;28;20207;-56
2022/10/01 11:35:27;;;;;;;13.20;3.42;;;26.40;99.90;;;;;;5029812;28;20195;-57
2022/10/01 11:37:59;;;;;;;19.45;3.13;;;27.20;99.90;;;;;;5071484;28;20258;-58
2022/10/01 11:40:37;;;;;;;14.90;3.13;;;27.30;99.90;;;;;;5070036;28;20503;-58
2022/10/01 11:43:13;;;;;;;22.63;3.50;;;25.20;99.90;;;;;;5071244;28;20165;-57
2022/10/01 11:45:44;;;;;;;21.85;3.10;;;25.50;99.90;;;;;;5071631;28;20241;-56
2022/10/01 11:48:16;;;;;;;11.77;2.60;;;25.30;99.90;;;;;;5071339;28;20200;-57
2022/10/01 11:50:46;;;;;;;22.63;3.55;;;25.80;99.90;;;;;;5071089;28;20179;-57
2022/10/01 11:53:17;;;;;;;12.20;2.65;;;24.70;99.90;;;;;;5072064;28;20204;-57
2022/10/01 11:58:56;;;;;;;16.83;3.28;;;21.50;99.90;;;;;;5051792;28;20180;-57
2022/10/01 12:01:46;;;;;;;15.63;3.15;;;21.10;99.90;;;;;;5051728;28;20176;-57
2022/10/01 12:04:33;;;;;;;19.27;3.28;;;21.90;99.90;;;;;;5052415;28;20173;-57
2022/10/01 12:07:26;;;;;;;18.00;3.05;;;23.80;99.90;;;;;;5052315;28;20176;-57
2022/10/01 12:10:10;;;;;;;13.35;2.38;;;25.20;99.90;;;;;;5051802;28;20228;-58
2022/10/01 12:12:59;;;;;;;16.38;2.53;;;26.50;99.90;;;;;;5051599;28;20165;-58
2022/10/01 12:15:43;;;;;;;11.80;2.47;;;27.60;99.90;;;;;;5051558;28;20283;-58
2022/10/01 12:18:14;;;;;;;11.55;2.33;;;28.00;99.90;;;;;;5051542;28;20609;-58
2022/10/01 12:20:47;;;;;;;13.07;2.83;;;28.60;99.90;;;;;;5051563;28;20169;-59
2022/10/01 12:23:17;;;;;;;15.57;3.28;;;27.40;99.90;;;;;;5051919;28;20574;-58
2022/10/01 12:25:55;;;;;;;16.60;3.38;;;25.60;99.90;;;;;;5050895;28;20165;-56
2022/10/01 12:28:30;;;;;;;13.50;2.83;;;23.10;99.90;;;;;;5054344;28;20195;-56
2022/10/01 12:31:06;;;;;;;16.13;3.40;;;21.90;99.90;;;;;;5058251;28;20169;-56
2022/10/01 12:33:40;;;;;;;14.32;2.53;;;21.10;99.90;;;;;;5067453;28;20214;-56
2022/10/01 12:36:07;;;;;;;17.80;3.10;;;;;;;;;;5070900;28;20677;-56
2022/10/01 12:39:02;;;;;;;18.67;3.30;;;20.10;99.90;;;;;;5070941;28;20302;-56
2022/10/01 12:41:44;;;;;;;17.58;3.20;;;20.50;99.90;;;;;;5071747;28;20168;-56
2022/10/01 12:44:26;;;;;;;21.08;4.32;;;21.20;99.90;;;;;;5071684;28;20262;-57
2022/10/01 12:47:16;;;;;;;15.07;2.67;;;22.20;99.90;;;;;;5070224;28;20539;-57
2022/10/01 12:49:42;;;;;;;20.30;3.53;;;22.60;99.90;;;;;;5051666;28;20711;-57
2022/10/01 12:52:33;;;;;;;20.10;3.08;;;22.80;99.90;;;;;;5051342;28;20268;-57
2022/10/01 12:54:59;;;;;;;16.63;3.25;;;22.80;99.90;;;;;;5051556;28;20231;-57
2022/10/01 12:57:25;;;;;;;16.42;3.17;;;;;;;;;;5051010;28;20527;-57
2022/10/01 12:59:51;;;;;;;15.93;3.35;;;;;;;;;;5062273;28;20249;-57
2022/10/01 13:02:29;;;;;;;17.63;3.25;;;23.80;99.90;;;;;;5069875;28;20188;-57
2022/10/01 13:05:12;;;;;;;13.15;2.75;;;24.40;99.90;;;;;;5070830;28;20172;-57
2022/10/01 13:07:38;;;;;;;12.82;2.95;;;;;;;;;;5065596;28;20245;-57
2022/10/01 13:10:25;;;;;;;16.95;2.97;;;23.70;99.90;;;;;;5049846;28;20711;-57
2022/10/01 13:13:20;;;;;;;15.93;3.17;;;23.20;99.90;;;;;;5051123;28;20173;-57
2022/10/01 13:15:51;;;;;;;13.70;3.03;;;22.80;99.90;;;;;;5062844;28;20310;-58
2022/10/01 13:18:17;;;;;;;14.65;2.70;;;;;;;;;;5060905;28;20222;-58
2022/10/01 13:21:04;;;;;;;17.90;3.05;;;23.60;99.90;;;;;;5059811;28;20172;-58